createdAt,value
2023-01-13T00:01:23.884Z,30.76
2023-01-13T00:03:52.534Z,30.43
2023-01-13T00:06:22.071Z,31.17
2023-01-13T00:08:51.195Z,30.75
2023-01-13T00:11:20.476Z,31.13
2023-01-13T00:13:49.033Z,30.77
2023-01-13T00:16:19.370Z,30.65
2023-01-13T00:18:51.249Z,30.38
2023-01-13T00:21:20.945Z,30.40
2023-01-13T00:23:50.084Z,30.62
2023-01-13T00:26:19.903Z,30.83
2023-01-13T00:28:48.432Z,30.90
2023-01-13T00:31:18.455Z,30.80
2023-01-13T00:33:49.073Z,30.53
2023-01-13T00:36:21.549Z,30.67
2023-01-13T00:38:50.192Z,30.55
2023-01-13T00:41:20.043Z,30.41
2023-01-13T00:43:47.922Z,30.80
2023-01-13T00:46:18.810Z,30.18
2023-01-13T00:48:48.281Z,30.54
2023-01-13T00:51:20.023Z,30.50
2023-01-13T00:53:50.111Z,30.51
2023-01-13T00:56:34.208Z,30.52
2023-01-13T00:59:07.721Z,30.45
2023-01-13T01:01:36.219Z,30.42
2023-01-13T01:04:05.040Z,30.19
2023-01-13T01:06:34.788Z,29.69
2023-01-13T01:09:03.527Z,29.99
2023-01-13T01:11:32.933Z,29.80
2023-01-13T01:14:03.833Z,29.53
2023-01-13T01:16:33.542Z,29.38
2023-01-13T01:19:03.572Z,29.68
2023-01-13T01:21:32.774Z,29.71
2023-01-13T01:24:04.941Z,29.03
2023-01-13T01:26:33.942Z,29.29
2023-01-13T01:29:03.262Z,29.41
2023-01-13T01:31:32.828Z,29.46
2023-01-13T01:34:01.876Z,29.55
2023-01-13T01:36:31.240Z,29.41
2023-01-13T01:39:02.430Z,29.29
2023-01-13T01:41:33.051Z,29.23
2023-01-13T01:44:02.875Z,29.08
2023-01-13T01:46:33.725Z,29.63
2023-01-13T01:49:10.426Z,28.73
2023-01-13T01:51:41.009Z,28.76
2023-01-13T01:54:13.559Z,28.51
2023-01-13T01:56:43.584Z,28.64
2023-01-13T01:59:12.682Z,28.98
2023-01-13T02:01:42.544Z,28.90
2023-01-13T02:04:14.353Z,29.08
2023-01-13T02:06:48.985Z,27.73
2023-01-13T02:09:19.109Z,28.72
2023-01-13T02:12:05.250Z,29.43
2023-01-13T02:14:35.185Z,29.07
2023-01-13T02:17:17.345Z,28.47
2023-01-13T02:20:25.295Z,28.48
2023-01-13T02:23:46.915Z,28.50
2023-01-13T02:26:48.387Z,28.08
2023-01-13T02:29:48.719Z,28.62
2023-01-13T02:32:21.571Z,29.34
2023-01-13T02:34:54.740Z,29.08
2023-01-13T02:37:29.764Z,28.79
2023-01-13T02:40:00.876Z,29.47
2023-01-13T02:42:51.342Z,29.66
2023-01-13T02:45:25.625Z,29.43
2023-01-13T02:47:55.976Z,29.81
2023-01-13T02:50:27.054Z,29.07
2023-01-13T02:52:56.037Z,27.95
2023-01-13T02:55:31.389Z,28.65
2023-01-13T02:58:00.711Z,29.24
2023-01-13T03:00:30.666Z,28.91
2023-01-13T03:02:59.212Z,29.20
2023-01-13T03:05:27.637Z,29.24
2023-01-13T03:08:10.810Z,28.68
2023-01-13T03:10:53.884Z,28.85
2023-01-13T03:13:30.963Z,28.52
2023-01-13T03:16:07.347Z,28.58
2023-01-13T03:18:42.937Z,29.05
2023-01-13T03:21:15.829Z,29.23
2023-01-13T03:23:50.938Z,29.54
2023-01-13T03:26:24.372Z,29.10
2023-01-13T03:28:57.514Z,29.19
2023-01-13T03:31:30.073Z,29.10
2023-01-13T03:34:00.842Z,29.23
2023-01-13T03:36:30.616Z,29.36
2023-01-13T03:39:02.831Z,29.35
2023-01-13T03:41:34.853Z,29.26
2023-01-13T03:44:25.786Z,29.75
2023-01-13T03:47:01.693Z,29.69
2023-01-13T03:49:35.350Z,29.56
2023-01-13T03:52:07.129Z,30.19
2023-01-13T03:54:39.311Z,30.68
2023-01-13T03:57:10.707Z,30.39
2023-01-13T03:59:42.779Z,30.22
2023-01-13T04:02:17.748Z,30.14
2023-01-13T04:04:50.467Z,29.96
2023-01-13T04:07:25.064Z,30.27
2023-01-13T04:09:56.213Z,30.34
2023-01-13T04:12:27.981Z,30.07
2023-01-13T04:14:56.949Z,30.27
2023-01-13T04:17:26.543Z,30.03
2023-01-13T04:19:55.006Z,29.78
2023-01-13T04:22:23.258Z,29.89
2023-01-13T04:24:51.688Z,29.76
2023-01-13T04:27:20.028Z,29.91
2023-01-13T04:29:48.522Z,29.62
2023-01-13T04:32:16.715Z,29.69
2023-01-13T04:34:46.715Z,29.19
2023-01-13T04:37:15.130Z,29.44
2023-01-13T04:39:43.799Z,29.21
2023-01-13T04:42:12.068Z,29.36
2023-01-13T04:44:40.624Z,29.54
2023-01-13T04:47:08.898Z,29.53
2023-01-13T04:49:37.350Z,29.41
2023-01-13T04:52:07.192Z,29.32
2023-01-13T04:54:35.651Z,29.38
2023-01-13T04:57:03.840Z,29.19
2023-01-13T04:59:34.460Z,29.42
2023-01-13T05:02:03.275Z,28.91
2023-01-13T05:04:31.913Z,29.03
2023-01-13T05:07:00.202Z,28.87
2023-01-13T05:09:30.256Z,29.04
2023-01-13T05:12:16.218Z,29.32
2023-01-13T05:15:01.960Z,29.23
2023-01-13T05:17:30.286Z,29.01
2023-01-13T05:19:58.761Z,29.15
2023-01-13T05:22:44.248Z,29.17
2023-01-13T05:25:24.610Z,28.93
2023-01-13T05:27:54.425Z,29.30
2023-01-13T05:30:24.718Z,29.19
2023-01-13T05:32:53.101Z,28.74
2023-01-13T05:35:21.658Z,29.04
2023-01-13T05:37:49.981Z,28.76
2023-01-13T05:40:38.292Z,28.40
2023-01-13T05:43:24.827Z,29.19
2023-01-13T05:45:57.924Z,28.42
2023-01-13T05:48:28.947Z,28.79
2023-01-13T05:50:57.352Z,27.65
2023-01-13T05:53:25.852Z,28.76
2023-01-13T05:55:55.929Z,28.59
2023-01-13T05:58:26.762Z,28.62
2023-01-13T06:01:00.900Z,28.22
2023-01-13T06:03:29.083Z,28.77
2023-01-13T06:05:59.470Z,28.94
2023-01-13T06:08:27.775Z,28.98
2023-01-13T06:10:57.864Z,28.42
2023-01-13T06:13:26.403Z,28.86
2023-01-13T06:15:57.896Z,28.57
2023-01-13T06:18:26.108Z,27.54
2023-01-13T06:20:54.724Z,28.98
2023-01-13T06:23:22.982Z,29.23
2023-01-13T06:25:55.164Z,28.58
2023-01-13T06:28:24.761Z,28.60
2023-01-13T06:30:57.858Z,28.71
2023-01-13T06:33:29.076Z,28.91
2023-01-13T06:36:00.140Z,28.90
2023-01-13T06:38:30.307Z,28.79
2023-01-13T06:40:58.995Z,28.80
2023-01-13T06:43:27.740Z,28.62
2023-01-13T06:45:57.454Z,28.80
2023-01-13T06:48:27.636Z,28.57
2023-01-13T06:50:56.196Z,28.87
2023-01-13T06:53:24.631Z,28.77
2023-01-13T06:55:53.359Z,28.80
2023-01-13T06:58:21.576Z,28.83
2023-01-13T07:00:51.811Z,28.62
2023-01-13T07:03:21.534Z,28.70
2023-01-13T07:05:54.123Z,28.60
2023-01-13T07:08:22.561Z,29.13
2023-01-13T07:10:51.438Z,28.99
2023-01-13T07:13:37.010Z,28.78
2023-01-13T07:16:08.894Z,28.99
2023-01-13T07:18:37.481Z,28.76
2023-01-13T07:21:08.013Z,28.56
2023-01-13T07:23:37.802Z,28.88
2023-01-13T07:26:07.087Z,29.11
2023-01-13T07:28:35.443Z,29.14
2023-01-13T07:31:04.203Z,29.01
2023-01-13T07:33:34.120Z,29.17
2023-01-13T07:36:04.119Z,28.78
2023-01-13T07:38:33.241Z,28.87
2023-01-13T07:41:23.205Z,28.78
2023-01-13T07:43:50.815Z,28.73
2023-01-13T07:46:19.939Z,28.42
2023-01-13T07:48:50.201Z,28.11
2023-01-13T07:51:19.060Z,28.01
2023-01-13T07:53:47.401Z,28.07
2023-01-13T07:56:16.006Z,27.75
2023-01-13T07:58:45.304Z,27.44
2023-01-13T08:01:16.957Z,26.75
2023-01-13T08:03:45.677Z,26.40
2023-01-13T08:06:15.757Z,25.60
2023-01-13T08:08:44.209Z,25.15
2023-01-13T08:11:12.830Z,24.50
2023-01-13T08:13:41.193Z,23.86
2023-01-13T08:16:11.393Z,23.88
2023-01-13T08:18:40.225Z,23.88
2023-01-13T08:21:10.303Z,23.87
2023-01-13T08:23:40.521Z,24.10
2023-01-13T08:26:10.811Z,24.37
2023-01-13T08:28:41.608Z,24.24
2023-01-13T08:31:12.861Z,23.66
2023-01-13T08:33:41.759Z,23.70
2023-01-13T08:36:13.282Z,23.26
2023-01-13T08:38:43.361Z,22.96
2023-01-13T08:41:13.052Z,23.64
2023-01-13T08:43:41.626Z,24.23
2023-01-13T08:46:10.536Z,24.39
2023-01-13T08:48:39.134Z,24.47
2023-01-13T08:51:09.751Z,24.85
2023-01-13T08:53:38.101Z,24.78
2023-01-13T08:56:11.816Z,24.62
2023-01-13T08:58:41.068Z,24.89
2023-01-13T09:01:10.347Z,24.91
2023-01-13T09:03:39.522Z,24.31
2023-01-13T09:06:08.248Z,23.45
2023-01-13T09:08:36.616Z,22.67
2023-01-13T09:11:26.188Z,22.57
2023-01-13T09:13:54.904Z,22.24
2023-01-13T09:16:23.462Z,22.72
2023-01-13T09:18:51.670Z,23.02
2023-01-13T09:21:21.199Z,23.35
2023-01-13T09:23:49.535Z,23.44
2023-01-13T09:26:21.755Z,23.77
2023-01-13T09:28:50.004Z,24.22
2023-01-13T09:31:19.953Z,24.10
2023-01-13T09:34:05.611Z,24.24
2023-01-13T09:36:34.315Z,24.04
2023-01-13T09:39:02.838Z,24.37
2023-01-13T09:41:50.287Z,23.71
2023-01-13T09:44:21.740Z,23.58
2023-01-13T09:46:54.767Z,23.46
2023-01-13T09:49:25.372Z,23.59
2023-01-13T09:51:57.073Z,23.72
2023-01-13T09:54:27.410Z,23.02
2023-01-13T09:56:56.948Z,24.08
2023-01-13T09:59:28.658Z,23.65
2023-01-13T10:02:01.939Z,23.61
2023-01-13T10:04:30.292Z,23.88
2023-01-13T10:07:01.539Z,23.47
2023-01-13T10:09:35.530Z,22.73
2023-01-13T10:12:22.214Z,23.01
2023-01-13T10:14:53.860Z,22.60
2023-01-13T10:17:29.875Z,22.18
2023-01-13T10:20:04.772Z,21.45
2023-01-13T10:22:47.087Z,20.21
2023-01-13T10:25:29.627Z,19.22
2023-01-13T10:28:04.465Z,19.51
2023-01-13T10:30:37.844Z,19.97
2023-01-13T10:33:12.760Z,20.34
2023-01-13T10:35:52.902Z,20.60
2023-01-13T10:38:23.441Z,21.35
2023-01-13T10:40:54.115Z,21.61
2023-01-13T10:43:22.844Z,21.96
2023-01-13T10:45:58.938Z,21.73
2023-01-13T10:48:38.054Z,21.79
2023-01-13T10:51:28.055Z,20.86
2023-01-13T10:54:02.897Z,21.83
2023-01-13T10:56:33.640Z,22.42
2023-01-13T10:59:15.031Z,22.26
2023-01-13T11:01:44.665Z,22.72
2023-01-13T11:04:28.320Z,22.10
2023-01-13T11:06:56.889Z,22.76
2023-01-13T11:09:27.017Z,22.33
2023-01-13T11:11:56.848Z,22.68
2023-01-13T11:14:37.007Z,22.53
2023-01-13T11:17:12.487Z,22.89
2023-01-13T11:19:46.333Z,22.76
2023-01-13T11:22:18.617Z,22.41
2023-01-13T11:24:52.006Z,22.55
2023-01-13T11:27:23.484Z,23.11
2023-01-13T11:30:01.459Z,23.11
2023-01-13T11:32:32.835Z,23.73
2023-01-13T11:35:06.490Z,23.78
2023-01-13T11:37:38.967Z,23.79
2023-01-13T11:40:14.587Z,24.07
2023-01-13T11:42:47.965Z,23.89
2023-01-13T11:45:20.345Z,23.94
2023-01-13T11:47:50.729Z,23.59
2023-01-13T11:50:34.596Z,23.31
2023-01-13T11:53:20.548Z,22.99
2023-01-13T11:55:57.141Z,23.37
2023-01-13T11:58:50.245Z,23.46
2023-01-13T12:01:32.513Z,23.62
2023-01-13T12:04:11.665Z,24.00
2023-01-13T12:06:43.632Z,23.85
2023-01-13T12:09:35.209Z,23.33
2023-01-13T12:12:20.632Z,23.59
2023-01-13T12:15:03.032Z,23.31
2023-01-13T12:17:36.049Z,23.72
2023-01-13T12:20:17.925Z,23.56
2023-01-13T12:22:49.494Z,23.85
2023-01-13T12:25:22.344Z,23.90
2023-01-13T12:27:54.176Z,24.06
2023-01-13T12:30:26.410Z,23.97
2023-01-13T12:32:56.668Z,24.21
2023-01-13T12:35:34.080Z,24.03
2023-01-13T12:38:09.614Z,23.95
2023-01-13T12:40:48.231Z,23.80
2023-01-13T12:43:36.186Z,23.98
2023-01-13T12:46:34.652Z,23.58
2023-01-13T12:49:20.565Z,23.72
2023-01-13T12:52:14.979Z,23.78
2023-01-13T12:55:10.187Z,23.54
2023-01-13T12:57:39.681Z,24.53
2023-01-13T13:00:17.379Z,24.20
2023-01-13T13:03:24.046Z,23.86
2023-01-13T13:05:58.062Z,24.22
2023-01-13T13:08:39.366Z,24.42
2023-01-13T13:11:40.070Z,24.54
2023-01-13T13:14:12.686Z,24.40
2023-01-13T13:16:51.082Z,24.17
2023-01-13T13:19:48.312Z,24.07
2023-01-13T13:22:22.106Z,24.55
2023-01-13T13:25:27.773Z,24.30
2023-01-13T13:28:18.005Z,24.80
2023-01-13T13:30:52.356Z,25.05
2023-01-13T13:33:38.429Z,25.49
2023-01-13T13:36:17.939Z,25.27
2023-01-13T13:39:21.239Z,25.57
2023-01-13T13:42:09.874Z,25.86
2023-01-13T13:44:59.427Z,26.22
2023-01-13T13:47:36.510Z,25.78
2023-01-13T13:50:09.331Z,26.56
2023-01-13T13:52:40.269Z,26.47
2023-01-13T13:55:10.062Z,25.14
2023-01-13T13:57:42.689Z,26.37
2023-01-13T14:00:23.121Z,25.90
2023-01-13T14:02:53.562Z,26.22
2023-01-13T14:05:24.014Z,26.56
2023-01-13T14:07:57.739Z,26.58
2023-01-13T14:10:31.218Z,26.43
2023-01-13T14:13:01.378Z,27.26
2023-01-13T14:15:37.030Z,26.76
2023-01-13T14:18:07.059Z,27.44
2023-01-13T14:20:37.035Z,27.50
2023-01-13T14:23:05.979Z,27.86
2023-01-13T14:25:39.549Z,27.41
2023-01-13T14:28:24.459Z,27.02
2023-01-13T14:31:01.718Z,27.71
2023-01-13T14:33:35.518Z,27.70
2023-01-13T14:36:16.709Z,26.97
2023-01-13T14:38:46.984Z,27.62
2023-01-13T14:41:21.988Z,27.50
2023-01-13T14:43:51.408Z,27.46
2023-01-13T14:46:25.483Z,28.13
2023-01-13T14:49:01.476Z,27.98
2023-01-13T14:51:31.718Z,27.55
2023-01-13T14:54:00.310Z,27.65
2023-01-13T14:56:44.007Z,27.08
2023-01-13T14:59:35.343Z,27.10
2023-01-13T15:02:20.437Z,26.75
2023-01-13T15:04:54.318Z,27.83
2023-01-13T15:07:27.003Z,27.87
2023-01-13T15:09:56.315Z,28.21
2023-01-13T15:12:39.508Z,27.63
2023-01-13T15:15:21.663Z,28.15
2023-01-13T15:17:50.564Z,28.29
2023-01-13T15:20:21.989Z,27.92
2023-01-13T15:22:51.497Z,28.11
2023-01-13T15:25:20.347Z,27.84
2023-01-13T15:27:51.012Z,27.47
2023-01-13T15:30:22.096Z,27.94
2023-01-13T15:32:50.564Z,27.70
2023-01-13T15:35:21.290Z,27.52
2023-01-13T15:37:50.620Z,27.20
2023-01-13T15:40:21.427Z,27.66
2023-01-13T15:43:07.312Z,27.97
2023-01-13T15:46:08.214Z,26.73
2023-01-13T15:58:21.610Z,27.03
2023-01-13T16:00:50.535Z,27.44
2023-01-13T16:03:21.050Z,27.30
2023-01-13T16:05:52.583Z,27.49
2023-01-13T16:08:23.596Z,26.84
2023-01-13T16:10:52.193Z,26.05
2023-01-13T16:13:21.955Z,26.85
2023-01-13T16:15:52.803Z,27.33
2023-01-13T16:18:24.454Z,26.98
2023-01-13T16:20:55.341Z,27.18
2023-01-13T16:23:24.464Z,26.96
2023-01-13T16:25:53.435Z,27.25
2023-01-13T16:28:29.185Z,27.11
2023-01-13T16:30:57.843Z,27.40
2023-01-13T16:33:26.296Z,28.47
2023-01-13T16:36:10.879Z,28.87
2023-01-13T16:38:41.243Z,28.91
2023-01-13T16:41:11.196Z,29.04
2023-01-13T16:43:41.674Z,29.02
2023-01-13T16:46:24.712Z,28.52
2023-01-13T16:48:55.172Z,29.27
2023-01-13T16:51:25.381Z,28.70
2023-01-13T16:53:54.213Z,29.18
2023-01-13T16:56:26.127Z,28.78
2023-01-13T16:58:57.203Z,28.36
2023-01-13T17:01:26.839Z,27.34
2023-01-13T17:03:55.869Z,28.38
2023-01-13T17:06:26.992Z,27.80
2023-01-13T17:08:57.578Z,27.85
2023-01-13T17:11:26.797Z,27.73
2023-01-13T17:13:56.859Z,27.57
2023-01-13T17:16:26.435Z,28.02
2023-01-13T17:18:55.207Z,27.83
2023-01-13T17:21:24.422Z,28.08
2023-01-13T17:23:53.149Z,27.97
2023-01-13T17:26:33.532Z,27.81
2023-01-13T17:29:04.684Z,28.42
2023-01-13T17:31:34.148Z,28.55
2023-01-13T17:34:03.060Z,28.75
2023-01-13T17:36:32.402Z,28.80
2023-01-13T17:39:00.879Z,28.58
2023-01-13T17:41:30.326Z,28.35
2023-01-13T17:43:58.979Z,28.61
2023-01-13T17:46:29.717Z,29.04
2023-01-13T17:48:58.241Z,29.73
2023-01-13T17:51:27.306Z,29.86
2023-01-13T17:53:56.071Z,30.37
2023-01-13T17:56:25.874Z,30.57
2023-01-13T17:58:54.571Z,30.83
2023-01-13T18:01:24.428Z,31.12
2023-01-13T18:03:54.859Z,30.86
2023-01-13T18:06:38.903Z,30.09
2023-01-13T18:09:07.704Z,31.37
2023-01-13T18:11:36.938Z,31.45
2023-01-13T18:14:05.832Z,31.64
2023-01-13T18:16:37.797Z,32.11
2023-01-13T18:19:25.153Z,31.74
2023-01-13T18:22:12.308Z,31.83
2023-01-13T18:24:58.615Z,31.97
2023-01-13T18:27:32.597Z,32.06
2023-01-13T18:30:02.334Z,32.71
2023-01-13T18:32:33.568Z,32.62
2023-01-13T18:35:06.938Z,32.36
2023-01-13T18:37:38.750Z,32.76
2023-01-13T18:40:07.906Z,31.84
2023-01-13T18:42:54.928Z,32.83
2023-01-13T18:45:25.793Z,32.92
2023-01-13T18:47:55.741Z,33.36
2023-01-13T18:50:25.945Z,33.19
2023-01-13T18:52:54.647Z,33.52
2023-01-13T18:55:23.191Z,34.04
2023-01-13T18:57:52.127Z,34.08
2023-01-13T19:00:22.481Z,33.58
2023-01-13T19:05:38.357Z,33.93
2023-01-13T19:08:07.174Z,34.37
2023-01-13T19:10:36.558Z,34.36
2023-01-13T19:13:05.372Z,34.47
2023-01-13T19:15:33.716Z,34.50
2023-01-13T19:18:02.582Z,34.51
2023-01-13T19:20:30.966Z,34.72
2023-01-13T19:23:01.188Z,34.48
2023-01-13T19:25:29.709Z,34.59
2023-01-13T19:27:58.768Z,34.80
2023-01-13T19:30:27.331Z,34.73
2023-01-13T19:32:56.048Z,34.67
2023-01-13T19:35:24.413Z,34.75
2023-01-13T19:37:54.193Z,34.99
2023-01-13T19:40:23.925Z,34.86
2023-01-13T19:43:10.239Z,34.98
2023-01-13T19:45:38.659Z,35.15
2023-01-13T19:48:08.745Z,35.41
2023-01-13T19:50:38.591Z,34.80
2023-01-13T19:53:07.931Z,34.89
2023-01-13T19:55:38.174Z,34.93
2023-01-13T19:58:08.306Z,34.76
2023-01-13T20:00:37.538Z,34.56
2023-01-13T20:03:10.886Z,35.46
2023-01-13T20:05:39.721Z,34.88
2023-01-13T20:08:08.244Z,35.18
2023-01-13T20:10:38.934Z,34.68
2023-01-13T20:13:08.104Z,34.73
2023-01-13T20:15:36.891Z,34.65
2023-01-13T20:18:05.643Z,34.80
2023-01-13T20:20:34.499Z,34.85
2023-01-13T20:23:03.100Z,34.76
2023-01-13T20:25:32.237Z,34.50
2023-01-13T20:28:03.141Z,34.03
2023-01-13T20:30:32.477Z,34.10
2023-01-13T20:33:01.007Z,34.49
2023-01-13T20:35:30.011Z,34.40
2023-01-13T20:37:58.576Z,34.18
2023-01-13T20:40:27.323Z,34.53
2023-01-13T20:42:55.089Z,34.56
2023-01-13T20:45:26.328Z,34.48
2023-01-13T20:47:55.502Z,34.40
2023-01-13T20:50:24.405Z,34.43
2023-01-13T20:52:53.058Z,34.60
2023-01-13T20:55:22.730Z,34.70
2023-01-13T20:57:51.608Z,34.58
2023-01-13T21:00:22.020Z,34.62
2023-01-13T21:02:51.910Z,34.47
2023-01-13T21:05:20.798Z,34.46
2023-01-13T21:07:49.252Z,34.97
2023-01-13T21:10:18.267Z,34.70
2023-01-13T21:13:04.303Z,34.84
2023-01-13T21:15:33.462Z,34.86
2023-01-13T21:18:20.892Z,35.08
2023-01-13T21:20:51.122Z,34.65
2023-01-13T21:23:21.096Z,34.56
2023-01-13T21:25:51.973Z,34.87
2023-01-13T21:28:20.730Z,34.58
2023-01-13T21:30:52.890Z,34.66
2023-01-13T21:33:22.957Z,34.78
2023-01-13T21:35:51.730Z,34.74
2023-01-13T21:38:20.379Z,34.52
2023-01-13T21:40:57.815Z,34.10
2023-01-13T21:43:43.769Z,35.12
2023-01-13T21:46:31.910Z,34.16
2023-01-13T21:49:02.136Z,34.52
2023-01-13T21:51:31.101Z,34.87
2023-01-13T21:53:59.862Z,35.23
2023-01-13T21:56:28.942Z,34.38
2023-01-13T21:58:57.589Z,34.63
2023-01-13T22:01:26.944Z,34.66
2023-01-13T22:04:13.987Z,35.01
2023-01-13T22:06:44.146Z,34.61
2023-01-13T22:09:13.005Z,34.83
2023-01-13T22:11:41.756Z,34.44
2023-01-13T22:14:11.072Z,34.47
2023-01-13T22:16:42.143Z,34.38
2023-01-13T22:19:11.525Z,34.28
2023-01-13T22:21:40.540Z,34.57
2023-01-13T22:24:11.029Z,33.86
2023-01-13T22:26:39.684Z,34.10
2023-01-13T22:29:07.931Z,34.51
2023-01-13T22:31:36.849Z,34.71
2023-01-13T22:34:05.731Z,34.66
2023-01-13T22:36:34.778Z,34.77
2023-01-13T22:39:04.894Z,34.89
2023-01-13T22:41:35.192Z,34.17
2023-01-13T22:44:03.793Z,34.88
2023-01-13T22:46:32.671Z,35.44
2023-01-13T22:49:01.247Z,34.70
2023-01-13T22:51:30.819Z,34.89
2023-01-13T22:53:59.097Z,34.96
2023-01-13T22:56:28.401Z,34.88
2023-01-13T22:59:00.467Z,34.11
2023-01-13T23:01:31.010Z,34.09
2023-01-13T23:04:00.333Z,34.26
2023-01-13T23:06:30.767Z,33.93
2023-01-13T23:08:59.673Z,34.43
2023-01-13T23:11:29.748Z,34.32
2023-01-13T23:14:01.505Z,33.78
2023-01-13T23:16:31.552Z,34.22
2023-01-13T23:19:00.099Z,34.75
2023-01-13T23:21:31.127Z,34.04
2023-01-13T23:24:00.565Z,34.26
2023-01-13T23:26:31.098Z,33.99
2023-01-13T23:29:03.266Z,34.38
2023-01-13T23:31:31.998Z,34.93
2023-01-13T23:34:00.989Z,34.44
2023-01-13T23:36:31.839Z,34.20
2023-01-13T23:39:00.597Z,34.24
2023-01-13T23:41:29.622Z,34.25
2023-01-13T23:44:00.291Z,34.09
2023-01-13T23:46:33.040Z,33.41
2023-01-13T23:49:02.616Z,34.13
2023-01-13T23:51:31.426Z,34.17
2023-01-13T23:54:00.255Z,34.33
2023-01-13T23:56:30.939Z,33.84
2023-01-13T23:58:59.928Z,33.78
